sensor_id;sensor_type;location;lat;lon;timestamp;P1;durP1;ratioP1;P2;durP2;ratioP2
41661;SDS011;27351;45.992;12.666;2023-09-07T00:00:00;4.60;;;2.17;;
41661;SDS011;27351;45.992;12.666;2023-09-07T00:02:26;5.43;;;2.70;;
41661;SDS011;27351;45.992;12.666;2023-09-07T00:04:51;5.10;;;2.00;;
41661;SDS011;27351;45.992;12.666;2023-09-07T00:07:17;3.85;;;2.00;;
41661;SDS011;27351;45.992;12.666;2023-09-07T00:09:43;3.73;;;1.90;;
41661;SDS011;27351;45.992;12.666;2023-09-07T00:12:08;5.50;;;2.37;;
41661;SDS011;27351;45.992;12.666;2023-09-07T00:14:34;5.75;;;2.28;;
41661;SDS011;27351;45.992;12.666;2023-09-07T00:16:59;4.90;;;2.37;;
41661;SDS011;27351;45.992;12.666;2023-09-07T00:19:25;4.60;;;2.20;;
41661;SDS011;27351;45.992;12.666;2023-09-07T00:21:50;4.53;;;2.10;;
41661;SDS011;27351;45.992;12.666;2023-09-07T00:24:17;4.50;;;2.20;;
41661;SDS011;27351;45.992;12.666;2023-09-07T00:26:43;5.35;;;2.10;;
41661;SDS011;27351;45.992;12.666;2023-09-07T00:29:08;4.30;;;2.00;;
41661;SDS011;27351;45.992;12.666;2023-09-07T00:31:34;4.50;;;2.22;;
41661;SDS011;27351;45.992;12.666;2023-09-07T00:34:00;4.60;;;2.28;;
41661;SDS011;27351;45.992;12.666;2023-09-07T00:36:25;4.67;;;2.60;;
41661;SDS011;27351;45.992;12.666;2023-09-07T00:38:51;4.97;;;2.23;;
41661;SDS011;27351;45.992;12.666;2023-09-07T00:41:17;5.18;;;2.47;;
41661;SDS011;27351;45.992;12.666;2023-09-07T00:43:42;4.73;;;2.27;;
41661;SDS011;27351;45.992;12.666;2023-09-07T00:46:08;4.87;;;2.13;;
41661;SDS011;27351;45.992;12.666;2023-09-07T00:48:34;4.32;;;2.50;;
41661;SDS011;27351;45.992;12.666;2023-09-07T00:51:00;6.23;;;2.20;;
41661;SDS011;27351;45.992;12.666;2023-09-07T00:53:26;4.07;;;2.10;;
41661;SDS011;27351;45.992;12.666;2023-09-07T00:55:53;4.68;;;2.15;;
41661;SDS011;27351;45.992;12.666;2023-09-07T00:58:19;5.05;;;2.70;;
41661;SDS011;27351;45.992;12.666;2023-09-07T01:00:46;5.18;;;2.08;;
41661;SDS011;27351;45.992;12.666;2023-09-07T01:03:12;2.73;;;1.73;;
41661;SDS011;27351;45.992;12.666;2023-09-07T01:05:41;4.28;;;2.17;;
41661;SDS011;27351;45.992;12.666;2023-09-07T01:08:15;4.72;;;2.22;;
41661;SDS011;27351;45.992;12.666;2023-09-07T01:10:43;3.65;;;2.05;;
41661;SDS011;27351;45.992;12.666;2023-09-07T01:13:09;5.07;;;2.43;;
41661;SDS011;27351;45.992;12.666;2023-09-07T01:15:35;3.90;;;2.10;;
41661;SDS011;27351;45.992;12.666;2023-09-07T01:18:01;4.45;;;2.30;;
41661;SDS011;27351;45.992;12.666;2023-09-07T01:20:27;4.77;;;2.63;;
41661;SDS011;27351;45.992;12.666;2023-09-07T01:22:54;5.00;;;2.45;;
41661;SDS011;27351;45.992;12.666;2023-09-07T01:25:20;5.68;;;2.85;;
41661;SDS011;27351;45.992;12.666;2023-09-07T01:27:47;6.90;;;2.80;;
41661;SDS011;27351;45.992;12.666;2023-09-07T01:30:13;4.57;;;2.57;;
41661;SDS011;27351;45.992;12.666;2023-09-07T01:32:39;4.68;;;2.40;;
41661;SDS011;27351;45.992;12.666;2023-09-07T01:35:05;5.80;;;2.67;;
41661;SDS011;27351;45.992;12.666;2023-09-07T01:37:32;4.93;;;2.58;;
41661;SDS011;27351;45.992;12.666;2023-09-07T01:39:58;6.70;;;2.88;;
41661;SDS011;27351;45.992;12.666;2023-09-07T01:42:26;5.93;;;3.00;;
41661;SDS011;27351;45.992;12.666;2023-09-07T01:44:51;5.03;;;2.70;;
41661;SDS011;27351;45.992;12.666;2023-09-07T01:47:17;5.10;;;2.40;;
41661;SDS011;27351;45.992;12.666;2023-09-07T01:49:42;4.87;;;2.70;;
41661;SDS011;27351;45.992;12.666;2023-09-07T01:52:08;4.57;;;2.50;;
41661;SDS011;27351;45.992;12.666;2023-09-07T01:54:34;6.32;;;2.80;;
41661;SDS011;27351;45.992;12.666;2023-09-07T01:56:59;6.88;;;2.60;;
41661;SDS011;27351;45.992;12.666;2023-09-07T01:59:25;5.13;;;2.67;;
41661;SDS011;27351;45.992;12.666;2023-09-07T02:01:50;6.40;;;2.53;;
41661;SDS011;27351;45.992;12.666;2023-09-07T02:04:16;4.60;;;2.28;;
41661;SDS011;27351;45.992;12.666;2023-09-07T02:06:41;5.40;;;2.50;;
41661;SDS011;27351;45.992;12.666;2023-09-07T02:09:07;6.63;;;2.20;;
41661;SDS011;27351;45.992;12.666;2023-09-07T02:11:33;4.45;;;1.90;;
41661;SDS011;27351;45.992;12.666;2023-09-07T02:13:59;3.87;;;2.20;;
41661;SDS011;27351;45.992;12.666;2023-09-07T02:16:24;4.70;;;2.20;;
41661;SDS011;27351;45.992;12.666;2023-09-07T02:18:50;4.07;;;2.00;;
41661;SDS011;27351;45.992;12.666;2023-09-07T02:21:16;4.25;;;2.20;;
41661;SDS011;27351;45.992;12.666;2023-09-07T02:23:42;4.50;;;2.10;;
41661;SDS011;27351;45.992;12.666;2023-09-07T02:26:08;3.60;;;1.98;;
41661;SDS011;27351;45.992;12.666;2023-09-07T02:28:34;4.38;;;1.80;;
41661;SDS011;27351;45.992;12.666;2023-09-07T02:31:03;4.30;;;1.87;;
41661;SDS011;27351;45.992;12.666;2023-09-07T02:33:28;4.78;;;1.83;;
41661;SDS011;27351;45.992;12.666;2023-09-07T02:35:54;3.23;;;1.70;;
41661;SDS011;27351;45.992;12.666;2023-09-07T02:38:20;6.13;;;1.93;;
41661;SDS011;27351;45.992;12.666;2023-09-07T02:40:45;3.33;;;1.70;;
41661;SDS011;27351;45.992;12.666;2023-09-07T02:43:12;4.57;;;2.00;;
41661;SDS011;27351;45.992;12.666;2023-09-07T02:45:38;3.50;;;1.88;;
41661;SDS011;27351;45.992;12.666;2023-09-07T02:48:04;4.28;;;2.17;;
41661;SDS011;27351;45.992;12.666;2023-09-07T02:50:31;4.05;;;1.90;;
41661;SDS011;27351;45.992;12.666;2023-09-07T02:52:57;3.90;;;2.00;;
41661;SDS011;27351;45.992;12.666;2023-09-07T02:55:23;4.57;;;2.07;;
41661;SDS011;27351;45.992;12.666;2023-09-07T02:57:48;3.97;;;1.92;;
41661;SDS011;27351;45.992;12.666;2023-09-07T03:00:14;3.42;;;1.90;;
41661;SDS011;27351;45.992;12.666;2023-09-07T03:02:43;4.77;;;2.00;;
41661;SDS011;27351;45.992;12.666;2023-09-07T03:05:09;3.65;;;2.03;;
41661;SDS011;27351;45.992;12.666;2023-09-07T03:07:35;3.75;;;1.92;;
41661;SDS011;27351;45.992;12.666;2023-09-07T03:10:01;3.78;;;1.90;;
41661;SDS011;27351;45.992;12.666;2023-09-07T03:12:27;4.65;;;2.05;;
41661;SDS011;27351;45.992;12.666;2023-09-07T03:14:53;3.63;;;1.90;;
41661;SDS011;27351;45.992;12.666;2023-09-07T03:17:19;3.22;;;2.00;;
41661;SDS011;27351;45.992;12.666;2023-09-07T03:19:48;4.00;;;2.00;;
41661;SDS011;27351;45.992;12.666;2023-09-07T03:22:15;4.28;;;1.90;;
41661;SDS011;27351;45.992;12.666;2023-09-07T03:24:40;3.92;;;1.70;;
41661;SDS011;27351;45.992;12.666;2023-09-07T03:27:07;4.05;;;2.17;;
41661;SDS011;27351;45.992;12.666;2023-09-07T03:29:33;4.80;;;1.87;;
41661;SDS011;27351;45.992;12.666;2023-09-07T03:32:02;3.27;;;1.83;;
41661;SDS011;27351;45.992;12.666;2023-09-07T03:34:28;3.03;;;1.90;;
41661;SDS011;27351;45.992;12.666;2023-09-07T03:36:54;3.30;;;1.67;;
41661;SDS011;27351;45.992;12.666;2023-09-07T03:39:19;3.67;;;1.80;;
41661;SDS011;27351;45.992;12.666;2023-09-07T03:41:48;3.00;;;1.60;;
41661;SDS011;27351;45.992;12.666;2023-09-07T03:44:14;4.60;;;2.00;;
41661;SDS011;27351;45.992;12.666;2023-09-07T03:46:39;4.20;;;1.80;;
41661;SDS011;27351;45.992;12.666;2023-09-07T03:49:05;4.00;;;1.60;;
41661;SDS011;27351;45.992;12.666;2023-09-07T03:51:31;3.47;;;1.70;;
41661;SDS011;27351;45.992;12.666;2023-09-07T03:53:57;3.63;;;1.80;;
41661;SDS011;27351;45.992;12.666;2023-09-07T03:56:23;2.70;;;1.67;;
41661;SDS011;27351;45.992;12.666;2023-09-07T03:58:49;3.72;;;1.90;;
41661;SDS011;27351;45.992;12.666;2023-09-07T04:01:14;4.25;;;1.90;;
41661;SDS011;27351;45.992;12.666;2023-09-07T04:03:40;3.13;;;1.70;;
41661;SDS011;27351;45.992;12.666;2023-09-07T04:06:07;4.30;;;1.93;;
41661;SDS011;27351;45.992;12.666;2023-09-07T04:08:33;4.13;;;1.83;;
41661;SDS011;27351;45.992;12.666;2023-09-07T04:11:02;3.77;;;1.70;;
41661;SDS011;27351;45.992;12.666;2023-09-07T04:13:28;3.87;;;1.83;;
41661;SDS011;27351;45.992;12.666;2023-09-07T04:15:54;3.33;;;1.80;;
41661;SDS011;27351;45.992;12.666;2023-09-07T04:18:19;3.45;;;1.73;;
41661;SDS011;27351;45.992;12.666;2023-09-07T04:20:45;3.20;;;1.73;;
41661;SDS011;27351;45.992;12.666;2023-09-07T04:23:12;2.88;;;1.60;;
41661;SDS011;27351;45.992;12.666;2023-09-07T04:25:38;3.50;;;1.60;;
41661;SDS011;27351;45.992;12.666;2023-09-07T04:28:07;4.13;;;1.95;;
41661;SDS011;27351;45.992;12.666;2023-09-07T04:30:36;4.60;;;1.88;;
41661;SDS011;27351;45.992;12.666;2023-09-07T04:33:02;3.53;;;1.70;;
41661;SDS011;27351;45.992;12.666;2023-09-07T04:35:28;3.63;;;1.45;;
41661;SDS011;27351;45.992;12.666;2023-09-07T04:37:54;4.55;;;1.90;;
41661;SDS011;27351;45.992;12.666;2023-09-07T04:40:20;2.93;;;1.70;;
41661;SDS011;27351;45.992;12.666;2023-09-07T04:42:45;3.40;;;1.90;;
41661;SDS011;27351;45.992;12.666;2023-09-07T04:45:11;4.35;;;2.00;;
41661;SDS011;27351;45.992;12.666;2023-09-07T04:47:36;4.20;;;2.17;;
41661;SDS011;27351;45.992;12.666;2023-09-07T04:50:02;3.07;;;1.57;;
41661;SDS011;27351;45.992;12.666;2023-09-07T04:52:29;5.77;;;1.60;;
41661;SDS011;27351;45.992;12.666;2023-09-07T04:54:55;4.45;;;1.90;;
41661;SDS011;27351;45.992;12.666;2023-09-07T04:57:21;3.10;;;1.70;;
41661;SDS011;27351;45.992;12.666;2023-09-07T04:59:47;3.80;;;1.83;;
41661;SDS011;27351;45.992;12.666;2023-09-07T05:02:13;4.05;;;2.05;;
41661;SDS011;27351;45.992;12.666;2023-09-07T05:04:39;4.43;;;2.10;;
41661;SDS011;27351;45.992;12.666;2023-09-07T05:07:04;4.77;;;2.17;;
41661;SDS011;27351;45.992;12.666;2023-09-07T05:09:30;6.38;;;2.30;;
41661;SDS011;27351;45.992;12.666;2023-09-07T05:11:57;4.88;;;1.90;;
41661;SDS011;27351;45.992;12.666;2023-09-07T05:14:23;5.07;;;1.93;;
41661;SDS011;27351;45.992;12.666;2023-09-07T05:16:49;4.53;;;2.00;;
41661;SDS011;27351;45.992;12.666;2023-09-07T05:19:14;3.83;;;1.77;;
41661;SDS011;27351;45.992;12.666;2023-09-07T05:21:42;4.65;;;1.98;;
41661;SDS011;27351;45.992;12.666;2023-09-07T05:24:07;3.08;;;1.67;;
41661;SDS011;27351;45.992;12.666;2023-09-07T05:26:33;3.08;;;1.67;;
41661;SDS011;27351;45.992;12.666;2023-09-07T05:28:59;4.95;;;1.98;;
41661;SDS011;27351;45.992;12.666;2023-09-07T05:31:24;3.45;;;1.52;;
41661;SDS011;27351;45.992;12.666;2023-09-07T05:33:50;3.10;;;1.60;;
41661;SDS011;27351;45.992;12.666;2023-09-07T05:36:17;4.78;;;2.15;;
41661;SDS011;27351;45.992;12.666;2023-09-07T05:38:43;4.25;;;1.92;;
41661;SDS011;27351;45.992;12.666;2023-09-07T05:41:08;3.67;;;1.80;;
41661;SDS011;27351;45.992;12.666;2023-09-07T05:43:34;4.67;;;1.80;;
41661;SDS011;27351;45.992;12.666;2023-09-07T05:45:59;3.90;;;1.67;;
41661;SDS011;27351;45.992;12.666;2023-09-07T05:48:25;3.58;;;1.80;;
41661;SDS011;27351;45.992;12.666;2023-09-07T05:50:51;5.22;;;2.35;;
41661;SDS011;27351;45.992;12.666;2023-09-07T05:53:18;4.60;;;1.73;;
41661;SDS011;27351;45.992;12.666;2023-09-07T05:55:43;3.67;;;1.70;;
41661;SDS011;27351;45.992;12.666;2023-09-07T05:58:09;4.90;;;1.70;;
41661;SDS011;27351;45.992;12.666;2023-09-07T06:00:38;6.82;;;2.10;;
41661;SDS011;27351;45.992;12.666;2023-09-07T06:03:05;3.47;;;1.60;;
41661;SDS011;27351;45.992;12.666;2023-09-07T06:05:32;4.00;;;1.83;;
41661;SDS011;27351;45.992;12.666;2023-09-07T06:07:58;5.30;;;1.73;;
41661;SDS011;27351;45.992;12.666;2023-09-07T06:10:24;3.00;;;1.63;;
41661;SDS011;27351;45.992;12.666;2023-09-07T06:12:53;4.13;;;1.88;;
41661;SDS011;27351;45.992;12.666;2023-09-07T06:15:20;4.15;;;1.80;;
41661;SDS011;27351;45.992;12.666;2023-09-07T06:17:46;3.25;;;1.77;;
41661;SDS011;27351;45.992;12.666;2023-09-07T06:20:12;3.30;;;1.65;;
41661;SDS011;27351;45.992;12.666;2023-09-07T06:22:38;8.47;;;1.90;;
41661;SDS011;27351;45.992;12.666;2023-09-07T06:25:04;3.37;;;1.83;;
41661;SDS011;27351;45.992;12.666;2023-09-07T06:27:30;3.08;;;1.70;;
41661;SDS011;27351;45.992;12.666;2023-09-07T06:29:56;5.70;;;1.80;;
41661;SDS011;27351;45.992;12.666;2023-09-07T06:32:21;3.38;;;1.58;;
41661;SDS011;27351;45.992;12.666;2023-09-07T06:34:47;5.75;;;1.67;;
41661;SDS011;27351;45.992;12.666;2023-09-07T06:37:13;3.50;;;1.73;;
41661;SDS011;27351;45.992;12.666;2023-09-07T06:39:39;5.43;;;1.83;;
41661;SDS011;27351;45.992;12.666;2023-09-07T06:42:08;3.78;;;1.67;;
41661;SDS011;27351;45.992;12.666;2023-09-07T06:44:42;3.60;;;1.60;;
41661;SDS011;27351;45.992;12.666;2023-09-07T06:47:09;4.40;;;1.90;;
41661;SDS011;27351;45.992;12.666;2023-09-07T06:49:37;3.47;;;1.80;;
41661;SDS011;27351;45.992;12.666;2023-09-07T06:52:03;3.10;;;1.70;;
41661;SDS011;27351;45.992;12.666;2023-09-07T06:54:29;4.20;;;1.80;;
41661;SDS011;27351;45.992;12.666;2023-09-07T06:56:55;5.90;;;2.08;;
41661;SDS011;27351;45.992;12.666;2023-09-07T06:59:21;4.03;;;1.97;;
41661;SDS011;27351;45.992;12.666;2023-09-07T07:01:47;3.15;;;1.58;;
41661;SDS011;27351;45.992;12.666;2023-09-07T07:04:12;3.10;;;1.70;;
41661;SDS011;27351;45.992;12.666;2023-09-07T07:06:38;5.80;;;1.97;;
41661;SDS011;27351;45.992;12.666;2023-09-07T07:09:05;6.77;;;1.93;;
41661;SDS011;27351;45.992;12.666;2023-09-07T07:11:31;3.65;;;2.00;;
41661;SDS011;27351;45.992;12.666;2023-09-07T07:13:56;5.05;;;2.25;;
41661;SDS011;27351;45.992;12.666;2023-09-07T07:16:22;4.30;;;1.80;;
41661;SDS011;27351;45.992;12.666;2023-09-07T07:18:49;3.28;;;1.60;;
41661;SDS011;27351;45.992;12.666;2023-09-07T07:21:15;4.05;;;1.58;;
41661;SDS011;27351;45.992;12.666;2023-09-07T07:23:41;4.05;;;2.05;;
41661;SDS011;27351;45.992;12.666;2023-09-07T07:26:08;3.97;;;1.70;;
41661;SDS011;27351;45.992;12.666;2023-09-07T07:28:34;5.35;;;1.60;;
41661;SDS011;27351;45.992;12.666;2023-09-07T07:31:06;4.97;;;1.67;;
41661;SDS011;27351;45.992;12.666;2023-09-07T07:33:32;4.20;;;1.95;;
41661;SDS011;27351;45.992;12.666;2023-09-07T07:35:57;3.57;;;1.57;;
41661;SDS011;27351;45.992;12.666;2023-09-07T07:38:23;2.90;;;1.60;;
41661;SDS011;27351;45.992;12.666;2023-09-07T07:40:49;3.43;;;1.60;;
41661;SDS011;27351;45.992;12.666;2023-09-07T07:43:15;3.50;;;1.70;;
41661;SDS011;27351;45.992;12.666;2023-09-07T07:45:41;4.03;;;1.70;;
41661;SDS011;27351;45.992;12.666;2023-09-07T07:48:07;3.70;;;1.80;;
41661;SDS011;27351;45.992;12.666;2023-09-07T07:50:37;4.38;;;1.75;;
41661;SDS011;27351;45.992;12.666;2023-09-07T07:53:04;3.55;;;1.60;;
41661;SDS011;27351;45.992;12.666;2023-09-07T07:55:36;2.00;;;1.38;;
41661;SDS011;27351;45.992;12.666;2023-09-07T07:58:09;3.55;;;1.67;;
41661;SDS011;27351;45.992;12.666;2023-09-07T08:00:37;3.45;;;1.60;;
41661;SDS011;27351;45.992;12.666;2023-09-07T08:03:03;3.55;;;1.70;;
41661;SDS011;27351;45.992;12.666;2023-09-07T08:05:31;2.28;;;1.42;;
41661;SDS011;27351;45.992;12.666;2023-09-07T08:07:57;4.53;;;1.58;;
41661;SDS011;27351;45.992;12.666;2023-09-07T08:10:23;3.85;;;1.60;;
41661;SDS011;27351;45.992;12.666;2023-09-07T08:12:52;2.83;;;1.42;;
41661;SDS011;27351;45.992;12.666;2023-09-07T08:15:18;3.17;;;1.50;;
41661;SDS011;27351;45.992;12.666;2023-09-07T08:17:47;3.50;;;1.90;;
41661;SDS011;27351;45.992;12.666;2023-09-07T08:20:13;3.03;;;1.40;;
41661;SDS011;27351;45.992;12.666;2023-09-07T08:22:39;4.00;;;1.70;;
41661;SDS011;27351;45.992;12.666;2023-09-07T08:25:07;4.35;;;1.75;;
41661;SDS011;27351;45.992;12.666;2023-09-07T08:27:33;3.40;;;1.50;;
41661;SDS011;27351;45.992;12.666;2023-09-07T08:29:58;4.80;;;1.83;;
41661;SDS011;27351;45.992;12.666;2023-09-07T08:32:24;4.45;;;1.60;;
41661;SDS011;27351;45.992;12.666;2023-09-07T08:34:50;3.50;;;1.65;;
41661;SDS011;27351;45.992;12.666;2023-09-07T08:37:16;3.15;;;1.50;;
41661;SDS011;27351;45.992;12.666;2023-09-07T08:39:42;4.45;;;1.63;;
41661;SDS011;27351;45.992;12.666;2023-09-07T08:42:08;2.83;;;1.48;;
41661;SDS011;27351;45.992;12.666;2023-09-07T08:44:34;4.13;;;1.70;;
41661;SDS011;27351;45.992;12.666;2023-09-07T08:47:02;4.38;;;1.70;;
41661;SDS011;27351;45.992;12.666;2023-09-07T08:49:28;3.10;;;1.50;;
41661;SDS011;27351;45.992;12.666;2023-09-07T08:52:00;5.40;;;1.90;;
41661;SDS011;27351;45.992;12.666;2023-09-07T08:54:25;3.75;;;1.58;;
41661;SDS011;27351;45.992;12.666;2023-09-07T08:56:52;3.50;;;1.50;;
41661;SDS011;27351;45.992;12.666;2023-09-07T08:59:18;3.70;;;1.50;;
41661;SDS011;27351;45.992;12.666;2023-09-07T09:01:44;3.97;;;1.60;;
41661;SDS011;27351;45.992;12.666;2023-09-07T09:04:09;4.77;;;1.60;;
41661;SDS011;27351;45.992;12.666;2023-09-07T09:06:35;4.65;;;1.55;;
41661;SDS011;27351;45.992;12.666;2023-09-07T09:09:01;3.20;;;1.73;;
41661;SDS011;27351;45.992;12.666;2023-09-07T09:11:27;3.70;;;1.70;;
41661;SDS011;27351;45.992;12.666;2023-09-07T09:13:53;3.95;;;1.90;;
41661;SDS011;27351;45.992;12.666;2023-09-07T09:16:19;3.55;;;1.60;;
41661;SDS011;27351;45.992;12.666;2023-09-07T09:21:14;2.92;;;1.50;;
41661;SDS011;27351;45.992;12.666;2023-09-07T09:23:40;3.83;;;1.70;;
41661;SDS011;27351;45.992;12.666;2023-09-07T09:26:06;2.73;;;1.50;;
41661;SDS011;27351;45.992;12.666;2023-09-07T09:28:31;2.53;;;1.50;;
41661;SDS011;27351;45.992;12.666;2023-09-07T09:30:58;3.28;;;1.40;;
41661;SDS011;27351;45.992;12.666;2023-09-07T09:33:24;4.10;;;1.60;;
41661;SDS011;27351;45.992;12.666;2023-09-07T09:35:50;4.28;;;1.80;;
41661;SDS011;27351;45.992;12.666;2023-09-07T09:38:16;4.20;;;1.63;;
41661;SDS011;27351;45.992;12.666;2023-09-07T09:40:42;2.75;;;1.35;;
41661;SDS011;27351;45.992;12.666;2023-09-07T09:43:08;2.17;;;1.20;;
41661;SDS011;27351;45.992;12.666;2023-09-07T09:45:35;2.95;;;1.63;;
41661;SDS011;27351;45.992;12.666;2023-09-07T09:48:01;3.70;;;1.60;;
41661;SDS011;27351;45.992;12.666;2023-09-07T09:50:26;3.03;;;1.42;;
41661;SDS011;27351;45.992;12.666;2023-09-07T09:52:52;3.57;;;1.37;;
41661;SDS011;27351;45.992;12.666;2023-09-07T09:55:18;3.47;;;2.05;;
41661;SDS011;27351;45.992;12.666;2023-09-07T09:57:44;4.43;;;1.53;;
41661;SDS011;27351;45.992;12.666;2023-09-07T10:00:10;2.77;;;1.53;;
41661;SDS011;27351;45.992;12.666;2023-09-07T10:03:01;3.75;;;1.67;;
41661;SDS011;27351;45.992;12.666;2023-09-07T10:05:28;4.03;;;1.60;;
41661;SDS011;27351;45.992;12.666;2023-09-07T10:07:59;3.20;;;1.50;;
41661;SDS011;27351;45.992;12.666;2023-09-07T10:10:25;4.18;;;1.60;;
41661;SDS011;27351;45.992;12.666;2023-09-07T10:12:52;3.60;;;1.50;;
41661;SDS011;27351;45.992;12.666;2023-09-07T10:15:21;2.75;;;1.42;;
41661;SDS011;27351;45.992;12.666;2023-09-07T10:17:47;3.17;;;1.50;;
41661;SDS011;27351;45.992;12.666;2023-09-07T10:20:16;4.40;;;1.50;;
41661;SDS011;27351;45.992;12.666;2023-09-07T10:22:42;3.13;;;1.57;;
41661;SDS011;27351;45.992;12.666;2023-09-07T10:25:17;2.83;;;1.30;;
41661;SDS011;27351;45.992;12.666;2023-09-07T10:27:44;3.80;;;1.40;;
41661;SDS011;27351;45.992;12.666;2023-09-07T10:30:09;3.37;;;1.53;;
41661;SDS011;27351;45.992;12.666;2023-09-07T10:32:38;3.08;;;1.33;;
41661;SDS011;27351;45.992;12.666;2023-09-07T10:35:15;3.30;;;1.40;;
41661;SDS011;27351;45.992;12.666;2023-09-07T10:37:43;3.30;;;1.40;;
41661;SDS011;27351;45.992;12.666;2023-09-07T10:40:10;2.42;;;1.45;;
41661;SDS011;27351;45.992;12.666;2023-09-07T10:42:37;2.55;;;1.58;;
41661;SDS011;27351;45.992;12.666;2023-09-07T10:45:12;2.53;;;1.50;;
41661;SDS011;27351;45.992;12.666;2023-09-07T10:47:41;4.07;;;1.95;;
41661;SDS011;27351;45.992;12.666;2023-09-07T10:50:08;3.35;;;1.75;;
41661;SDS011;27351;45.992;12.666;2023-09-07T10:52:35;4.65;;;1.73;;
41661;SDS011;27351;45.992;12.666;2023-09-07T10:55:01;3.58;;;1.58;;
41661;SDS011;27351;45.992;12.666;2023-09-07T10:57:27;2.73;;;1.40;;
41661;SDS011;27351;45.992;12.666;2023-09-07T10:59:52;4.32;;;1.40;;
41661;SDS011;27351;45.992;12.666;2023-09-07T11:02:20;3.17;;;1.60;;
41661;SDS011;27351;45.992;12.666;2023-09-07T11:04:46;3.45;;;1.70;;
41661;SDS011;27351;45.992;12.666;2023-09-07T11:07:12;3.33;;;1.60;;
41661;SDS011;27351;45.992;12.666;2023-09-07T11:09:41;2.67;;;1.42;;
41661;SDS011;27351;45.992;12.666;2023-09-07T11:12:06;3.60;;;1.50;;
41661;SDS011;27351;45.992;12.666;2023-09-07T11:14:33;2.67;;;1.50;;
41661;SDS011;27351;45.992;12.666;2023-09-07T11:17:00;3.10;;;1.60;;
41661;SDS011;27351;45.992;12.666;2023-09-07T11:19:26;3.20;;;1.52;;
41661;SDS011;27351;45.992;12.666;2023-09-07T11:21:54;4.40;;;1.52;;
41661;SDS011;27351;45.992;12.666;2023-09-07T11:24:20;4.53;;;1.70;;
41661;SDS011;27351;45.992;12.666;2023-09-07T11:26:47;3.40;;;1.40;;
41661;SDS011;27351;45.992;12.666;2023-09-07T11:29:13;3.70;;;1.70;;
41661;SDS011;27351;45.992;12.666;2023-09-07T11:31:39;2.70;;;1.30;;
41661;SDS011;27351;45.992;12.666;2023-09-07T11:34:08;3.13;;;1.95;;
41661;SDS011;27351;45.992;12.666;2023-09-07T11:36:34;3.42;;;1.70;;
41661;SDS011;27351;45.992;12.666;2023-09-07T11:38:59;2.60;;;1.40;;
41661;SDS011;27351;45.992;12.666;2023-09-07T11:41:25;3.95;;;1.50;;
41661;SDS011;27351;45.992;12.666;2023-09-07T11:43:50;4.23;;;1.67;;
41661;SDS011;27351;45.992;12.666;2023-09-07T11:46:16;3.53;;;1.48;;
41661;SDS011;27351;45.992;12.666;2023-09-07T11:48:42;3.38;;;1.70;;
41661;SDS011;27351;45.992;12.666;2023-09-07T11:51:07;3.33;;;1.40;;
41661;SDS011;27351;45.992;12.666;2023-09-07T11:53:34;4.50;;;1.60;;
41661;SDS011;27351;45.992;12.666;2023-09-07T11:56:00;3.23;;;1.70;;
41661;SDS011;27351;45.992;12.666;2023-09-07T11:58:26;3.17;;;1.70;;
41661;SDS011;27351;45.992;12.666;2023-09-07T12:00:52;2.90;;;1.50;;
41661;SDS011;27351;45.992;12.666;2023-09-07T12:03:17;4.27;;;1.77;;
41661;SDS011;27351;45.992;12.666;2023-09-07T12:05:43;3.33;;;1.37;;
41661;SDS011;27351;45.992;12.666;2023-09-07T12:08:09;4.35;;;1.80;;
41661;SDS011;27351;45.992;12.666;2023-09-07T12:10:35;5.85;;;1.85;;
41661;SDS011;27351;45.992;12.666;2023-09-07T12:13:00;2.90;;;1.40;;
41661;SDS011;27351;45.992;12.666;2023-09-07T12:15:26;2.53;;;1.38;;
41661;SDS011;27351;45.992;12.666;2023-09-07T12:17:51;2.83;;;1.53;;
41661;SDS011;27351;45.992;12.666;2023-09-07T12:20:19;3.97;;;1.73;;
41661;SDS011;27351;45.992;12.666;2023-09-07T12:22:46;2.67;;;1.40;;
41661;SDS011;27351;45.992;12.666;2023-09-07T12:25:12;4.40;;;1.70;;
41661;SDS011;27351;45.992;12.666;2023-09-07T12:27:37;3.47;;;1.30;;
41661;SDS011;27351;45.992;12.666;2023-09-07T12:30:03;4.25;;;1.70;;
41661;SDS011;27351;45.992;12.666;2023-09-07T12:32:33;3.00;;;1.58;;
41661;SDS011;27351;45.992;12.666;2023-09-07T12:34:59;3.93;;;1.60;;
41661;SDS011;27351;45.992;12.666;2023-09-07T12:37:25;3.03;;;1.60;;
41661;SDS011;27351;45.992;12.666;2023-09-07T12:39:50;2.57;;;1.30;;
41661;SDS011;27351;45.992;12.666;2023-09-07T12:42:16;4.00;;;1.40;;
41661;SDS011;27351;45.992;12.666;2023-09-07T12:44:43;4.82;;;1.77;;
41661;SDS011;27351;45.992;12.666;2023-09-07T12:47:08;3.50;;;1.50;;
41661;SDS011;27351;45.992;12.666;2023-09-07T12:49:34;4.03;;;1.63;;
41661;SDS011;27351;45.992;12.666;2023-09-07T12:52:00;2.43;;;1.47;;
41661;SDS011;27351;45.992;12.666;2023-09-07T12:54:25;4.10;;;1.30;;
41661;SDS011;27351;45.992;12.666;2023-09-07T12:56:51;3.20;;;1.60;;
41661;SDS011;27351;45.992;12.666;2023-09-07T12:59:17;3.72;;;1.77;;
41661;SDS011;27351;45.992;12.666;2023-09-07T13:01:43;3.03;;;1.60;;
41661;SDS011;27351;45.992;12.666;2023-09-07T13:04:09;2.80;;;1.40;;
41661;SDS011;27351;45.992;12.666;2023-09-07T13:06:36;2.63;;;1.40;;
41661;SDS011;27351;45.992;12.666;2023-09-07T13:09:02;3.57;;;1.30;;
41661;SDS011;27351;45.992;12.666;2023-09-07T13:11:29;3.17;;;1.50;;
41661;SDS011;27351;45.992;12.666;2023-09-07T13:13:57;3.20;;;1.38;;
41661;SDS011;27351;45.992;12.666;2023-09-07T13:16:22;2.22;;;1.30;;
41661;SDS011;27351;45.992;12.666;2023-09-07T13:18:48;3.27;;;1.47;;
41661;SDS011;27351;45.992;12.666;2023-09-07T13:21:14;2.77;;;1.50;;
41661;SDS011;27351;45.992;12.666;2023-09-07T13:23:39;3.77;;;1.60;;
41661;SDS011;27351;45.992;12.666;2023-09-07T13:26:06;3.15;;;1.40;;
41661;SDS011;27351;45.992;12.666;2023-09-07T13:28:32;3.33;;;1.42;;
41661;SDS011;27351;45.992;12.666;2023-09-07T13:30:57;3.37;;;1.40;;
41661;SDS011;27351;45.992;12.666;2023-09-07T13:33:23;2.60;;;1.30;;
41661;SDS011;27351;45.992;12.666;2023-09-07T13:35:48;3.28;;;1.42;;
41661;SDS011;27351;45.992;12.666;2023-09-07T13:38:14;3.27;;;1.33;;
41661;SDS011;27351;45.992;12.666;2023-09-07T13:40:40;4.22;;;1.60;;
41661;SDS011;27351;45.992;12.666;2023-09-07T13:43:05;3.72;;;1.50;;
41661;SDS011;27351;45.992;12.666;2023-09-07T13:45:31;3.47;;;1.30;;
41661;SDS011;27351;45.992;12.666;2023-09-07T13:47:56;3.08;;;1.33;;
41661;SDS011;27351;45.992;12.666;2023-09-07T13:50:22;3.07;;;1.50;;
41661;SDS011;27351;45.992;12.666;2023-09-07T13:52:48;4.95;;;1.70;;
41661;SDS011;27351;45.992;12.666;2023-09-07T13:55:14;3.47;;;1.20;;
41661;SDS011;27351;45.992;12.666;2023-09-07T13:57:39;3.07;;;1.33;;
41661;SDS011;27351;45.992;12.666;2023-09-07T14:00:05;3.43;;;1.57;;
41661;SDS011;27351;45.992;12.666;2023-09-07T14:02:31;2.83;;;1.30;;
41661;SDS011;27351;45.992;12.666;2023-09-07T14:04:58;3.90;;;1.40;;
41661;SDS011;27351;45.992;12.666;2023-09-07T14:07:23;3.78;;;1.65;;
41661;SDS011;27351;45.992;12.666;2023-09-07T14:09:51;4.90;;;1.45;;
41661;SDS011;27351;45.992;12.666;2023-09-07T14:12:17;3.07;;;1.53;;
41661;SDS011;27351;45.992;12.666;2023-09-07T14:14:42;4.65;;;2.05;;
41661;SDS011;27351;45.992;12.666;2023-09-07T14:17:08;2.97;;;1.40;;
41661;SDS011;27351;45.992;12.666;2023-09-07T14:19:33;3.45;;;1.60;;
41661;SDS011;27351;45.992;12.666;2023-09-07T14:21:59;4.13;;;1.70;;
41661;SDS011;27351;45.992;12.666;2023-09-07T14:24:25;4.75;;;1.70;;
41661;SDS011;27351;45.992;12.666;2023-09-07T14:26:50;4.20;;;1.53;;
41661;SDS011;27351;45.992;12.666;2023-09-07T14:29:16;4.65;;;1.60;;